Time;durP1;ratioP1;P1;durP2;ratioP2;P2;SDS_P1;SDS_P2;PMS_P1;PMS_P2;Temp;Humidity;BMP_temperature;BMP_pressure;BME280_temperature;BME280_humidity;BME280_pressure;Samples;Min_cycle;Max_cycle;Signal;HPM_P1;HPM_P2
2021/01/11 00:00:41;;;;;;;30.05;18.23;;;3.20;99.90;;;;;;4145175;28;20080;-72
2021/01/11 00:02:43;;;;;;;32.75;18.27;;;3.20;99.90;;;;;;4136945;28;20038;-72
2021/01/11 00:04:44;;;;;;;30.75;18.35;;;3.20;99.90;;;;;;4138849;28;20537;-72
2021/01/11 00:06:45;;;;;;;30.05;17.40;;;3.20;99.90;;;;;;4135156;28;20085;-72
2021/01/11 00:08:46;;;;;;;28.13;16.58;;;3.20;99.90;;;;;;4125634;28;20019;-72
2021/01/11 00:10:46;;;;;;;36.05;17.85;;;3.30;99.90;;;;;;4143736;28;20034;-72
2021/01/11 00:12:47;;;;;;;26.85;15.50;;;3.30;99.90;;;;;;4143394;28;20083;-72
2021/01/11 00:14:48;;;;;;;29.40;17.90;;;3.30;99.90;;;;;;4136395;28;20046;-72
2021/01/11 00:16:48;;;;;;;30.05;17.35;;;3.20;99.90;;;;;;4130694;28;20058;-72
2021/01/11 00:18:49;;;;;;;29.70;17.15;;;3.30;99.90;;;;;;4137419;28;20028;-72
2021/01/11 00:20:49;;;;;;;32.85;18.30;;;3.30;99.90;;;;;;4144654;28;20536;-72
2021/01/11 00:22:50;;;;;;;29.75;17.75;;;3.20;99.90;;;;;;4132371;28;20056;-72
2021/01/11 00:24:50;;;;;;;30.13;17.58;;;3.20;99.90;;;;;;4144378;28;20030;-72
2021/01/11 00:26:52;;;;;;;30.40;18.17;;;3.20;99.90;;;;;;4143058;28;20045;-72
2021/01/11 00:28:53;;;;;;;33.07;18.57;;;3.20;99.90;;;;;;4142825;28;20038;-72
2021/01/11 00:30:53;;;;;;;29.55;19.05;;;3.30;99.90;;;;;;4143094;28;20061;-72
2021/01/11 00:32:54;;;;;;;36.95;21.42;;;3.20;99.90;;;;;;4141562;28;20046;-72
2021/01/11 00:34:54;;;;;;;32.88;19.50;;;3.20;99.90;;;;;;4145023;28;20091;-72
2021/01/11 00:36:58;;;;;;;36.78;20.88;;;3.20;99.90;;;;;;4126352;28;20101;-72
2021/01/11 00:38:58;;;;;;;34.08;20.50;;;3.20;99.90;;;;;;4136712;28;20374;-72
2021/01/11 00:40:59;;;;;;;32.60;19.55;;;3.20;99.90;;;;;;4140179;28;20073;-72
2021/01/11 00:42:59;;;;;;;34.03;19.92;;;3.20;99.90;;;;;;4142966;28;20121;-72
2021/01/11 00:45:01;;;;;;;38.05;21.60;;;3.20;99.90;;;;;;4143161;28;20211;-72
2021/01/11 00:47:04;;;;;;;34.95;19.58;;;3.20;99.90;;;;;;4144525;28;20038;-72
2021/01/11 00:49:05;;;;;;;32.95;20.10;;;3.20;99.90;;;;;;4144284;28;20038;-72
2021/01/11 00:51:07;;;;;;;33.50;19.95;;;3.10;99.90;;;;;;4139331;28;20045;-72
2021/01/11 00:53:07;;;;;;;35.47;19.38;;;3.20;99.90;;;;;;4134510;28;20105;-72
2021/01/11 00:55:09;;;;;;;34.00;19.98;;;3.20;99.90;;;;;;4139690;28;20038;-72
2021/01/11 00:57:11;;;;;;;32.60;20.17;;;3.20;99.90;;;;;;4144875;28;20089;-72
2021/01/11 00:59:13;;;;;;;37.25;21.17;;;3.20;99.90;;;;;;4143175;28;20033;-72
2021/01/11 01:01:15;;;;;;;37.30;22.50;;;3.20;99.90;;;;;;4134084;28;20117;-72
2021/01/11 01:03:15;;;;;;;32.63;20.48;;;3.20;99.90;;;;;;4141235;28;20034;-72
2021/01/11 01:05:16;;;;;;;38.10;21.52;;;3.20;99.90;;;;;;4144587;28;20037;-72
2021/01/11 01:07:17;;;;;;;35.38;21.73;;;3.20;99.90;;;;;;4144000;28;20041;-72
2021/01/11 01:09:18;;;;;;;35.58;21.30;;;3.10;99.90;;;;;;4142274;28;20068;-72
2021/01/11 01:11:18;;;;;;;36.38;21.65;;;3.10;99.90;;;;;;4142332;28;20437;-72
2021/01/11 01:13:19;;;;;;;36.20;21.20;;;3.10;99.90;;;;;;4134372;28;20069;-72
2021/01/11 01:15:19;;;;;;;34.33;22.00;;;3.10;99.90;;;;;;4143974;28;20034;-72
2021/01/11 01:17:20;;;;;;;34.28;21.25;;;3.10;99.90;;;;;;4132958;28;20065;-72
2021/01/11 01:19:20;;;;;;;36.30;22.33;;;3.10;99.90;;;;;;4142270;28;20471;-72
2021/01/11 01:21:21;;;;;;;38.22;21.80;;;3.10;99.90;;;;;;4141866;28;20034;-72
2021/01/11 01:23:23;;;;;;;35.70;22.48;;;3.10;99.90;;;;;;4143969;28;20055;-72
2021/01/11 01:25:24;;;;;;;35.85;21.70;;;3.00;99.90;;;;;;4141591;28;20034;-72
2021/01/11 01:27:25;;;;;;;38.65;23.23;;;3.10;99.90;;;;;;4142155;28;20092;-72
2021/01/11 01:29:25;;;;;;;42.35;24.20;;;3.00;99.90;;;;;;4138339;28;20037;-72
2021/01/11 01:31:26;;;;;;;41.55;24.27;;;3.00;99.90;;;;;;4143854;28;20030;-72
2021/01/11 01:33:26;;;;;;;43.63;24.73;;;3.00;99.90;;;;;;4142555;28;20097;-72
2021/01/11 01:35:29;;;;;;;38.88;22.88;;;3.00;99.90;;;;;;4139863;28;20053;-72
2021/01/11 01:37:30;;;;;;;43.92;24.83;;;3.00;99.90;;;;;;4142163;28;20038;-72
2021/01/11 01:39:30;;;;;;;46.17;25.88;;;3.00;99.90;;;;;;4118204;28;20030;-72
2021/01/11 01:41:31;;;;;;;42.45;25.27;;;3.00;99.90;;;;;;4142913;28;20579;-72
2021/01/11 01:43:33;;;;;;;40.38;25.05;;;3.00;99.90;;;;;;4137118;28;20044;-71
2021/01/11 01:45:33;;;;;;;36.55;22.67;;;3.00;99.90;;;;;;4143690;28;20052;-72
2021/01/11 01:47:35;;;;;;;47.35;26.83;;;3.00;99.90;;;;;;4143588;28;20042;-72
2021/01/11 01:49:36;;;;;;;41.97;25.25;;;3.00;99.90;;;;;;4133371;28;20045;-72
2021/01/11 01:51:39;;;;;;;41.42;25.00;;;3.00;99.90;;;;;;4135745;28;20104;-72
2021/01/11 01:53:39;;;;;;;46.85;26.48;;;3.00;99.90;;;;;;4124666;28;20081;-72
2021/01/11 01:55:41;;;;;;;42.88;25.02;;;3.00;99.90;;;;;;4137570;28;20463;-72
2021/01/11 01:57:42;;;;;;;42.45;25.50;;;3.00;99.90;;;;;;4125817;28;20489;-72
2021/01/11 01:59:47;;;;;;;44.35;26.35;;;3.00;99.90;;;;;;4134873;28;20058;-72
2021/01/11 02:01:53;;;;;;;41.50;25.55;;;3.00;99.90;;;;;;4142249;28;20116;-72
2021/01/11 02:03:53;;;;;;;44.95;27.50;;;3.00;99.90;;;;;;4143284;28;20038;-72
2021/01/11 02:05:54;;;;;;;42.55;26.02;;;2.90;99.90;;;;;;4142806;28;20049;-72
2021/01/11 02:08:15;;;;;;;45.75;28.00;;;2.80;99.90;;;;;;4141819;28;20057;-72
2021/01/11 02:10:22;;;;;;;45.10;26.75;;;2.80;99.90;;;;;;4140400;28;20074;-72
2021/01/11 02:12:35;;;;;;;46.13;27.17;;;2.80;99.90;;;;;;4140865;28;20073;-72
2021/01/11 02:15:04;;;;;;;53.45;30.10;;;2.80;99.90;;;;;;4142827;28;20855;-72
2021/01/11 02:17:28;;;;;;;45.15;25.75;;;2.80;99.90;;;;;;4137906;28;20038;-72
2021/01/11 02:19:34;;;;;;;44.08;26.52;;;2.80;99.90;;;;;;4141454;28;20543;-72
2021/01/11 02:22:04;;;;;;;52.10;28.98;;;2.80;99.90;;;;;;4142590;28;20057;-72
2021/01/11 02:24:33;;;;;;;51.35;29.48;;;2.80;99.90;;;;;;4139679;28;20033;-71
2021/01/11 02:26:47;;;;;;;48.65;29.23;;;2.70;99.90;;;;;;4139522;28;20053;-72
2021/01/11 02:28:57;;;;;;;45.15;27.08;;;2.70;99.90;;;;;;4143444;28;20034;-72
2021/01/11 02:30:59;;;;;;;51.10;28.48;;;2.70;99.90;;;;;;4139386;28;20468;-72
2021/01/11 02:33:08;;;;;;;48.08;28.85;;;2.70;99.90;;;;;;4141568;28;20069;-72
2021/01/11 02:35:11;;;;;;;43.83;26.63;;;2.60;99.90;;;;;;4135176;28;20053;-72
2021/01/11 02:37:12;;;;;;;48.88;29.88;;;2.60;99.90;;;;;;4143180;28;20513;-72
2021/01/11 02:39:13;;;;;;;46.70;27.48;;;2.60;99.90;;;;;;4131619;28;20062;-72
2021/01/11 02:41:13;;;;;;;50.25;29.70;;;2.60;99.90;;;;;;4143693;28;20029;-72
2021/01/11 02:43:14;;;;;;;46.40;28.20;;;2.60;99.90;;;;;;4135758;28;20475;-72
2021/01/11 02:45:15;;;;;;;49.70;28.80;;;2.60;99.90;;;;;;4140565;28;20041;-72
2021/01/11 02:47:23;;;;;;;46.13;27.48;;;2.60;99.90;;;;;;4137732;28;20470;-72
2021/01/11 02:49:27;;;;;;;43.85;25.33;;;2.60;99.90;;;;;;4145605;28;20073;-72
2021/01/11 02:51:47;;;;;;;44.92;26.35;;;2.50;99.90;;;;;;4142904;28;20042;-72
2021/01/11 02:54:12;;;;;;;39.95;24.10;;;2.50;99.90;;;;;;4133390;28;20046;-72
2021/01/11 02:56:20;;;;;;;43.80;25.38;;;2.50;99.90;;;;;;4140941;28;20109;-72
2021/01/11 02:58:32;;;;;;;41.95;26.60;;;2.40;99.90;;;;;;4143533;28;20030;-72
2021/01/11 03:00:37;;;;;;;40.65;24.83;;;2.40;99.90;;;;;;4141504;28;20042;-71
2021/01/11 03:02:44;;;;;;;46.63;26.83;;;2.40;99.90;;;;;;4138888;28;20190;-72
2021/01/11 03:04:47;;;;;;;42.55;25.20;;;2.40;99.90;;;;;;4120676;28;20052;-72
2021/01/11 03:06:55;;;;;;;43.22;25.35;;;2.40;99.90;;;;;;4149117;28;20037;-72
2021/01/11 03:09:05;;;;;;;40.13;23.38;;;2.40;99.90;;;;;;4146640;28;20458;-72
2021/01/11 03:11:06;;;;;;;38.10;22.73;;;2.40;99.90;;;;;;4140041;28;20037;-72
2021/01/11 03:13:07;;;;;;;38.35;22.45;;;2.40;99.90;;;;;;4137568;28;20039;-72
2021/01/11 03:15:09;;;;;;;43.22;22.10;;;2.50;99.90;;;;;;4141728;28;20068;-72
2021/01/11 03:17:09;;;;;;;32.67;19.13;;;2.40;99.90;;;;;;4142681;28;20494;-72
2021/01/11 03:19:10;;;;;;;38.88;21.15;;;2.40;99.90;;;;;;4141408;28;20041;-72
2021/01/11 03:21:10;;;;;;;32.75;19.77;;;2.40;99.90;;;;;;4123558;28;20042;-71
2021/01/11 03:23:12;;;;;;;31.17;19.05;;;2.40;99.90;;;;;;4143125;28;20030;-72
2021/01/11 03:25:13;;;;;;;29.83;18.55;;;2.40;99.90;;;;;;4146029;28;20152;-72
2021/01/11 03:27:13;;;;;;;28.55;18.45;;;2.40;99.90;;;;;;4146599;28;20030;-72
2021/01/11 03:29:15;;;;;;;29.75;17.52;;;2.50;99.90;;;;;;4133381;28;20068;-72
2021/01/11 03:31:16;;;;;;;31.02;17.45;;;2.50;99.90;;;;;;4138848;28;20865;-72
2021/01/11 03:33:16;;;;;;;26.67;16.60;;;2.50;99.90;;;;;;4141789;28;20034;-72
2021/01/11 03:35:17;;;;;;;29.63;17.20;;;2.50;99.90;;;;;;4144130;28;20037;-72
2021/01/11 03:37:18;;;;;;;28.75;17.73;;;2.50;99.90;;;;;;4146524;28;20037;-72
2021/01/11 03:39:19;;;;;;;32.33;19.20;;;2.40;99.90;;;;;;4134275;28;20121;-72
2021/01/11 03:41:19;;;;;;;31.05;18.10;;;2.40;99.90;;;;;;4138344;28;20815;-72
2021/01/11 03:43:20;;;;;;;28.52;17.55;;;2.40;99.90;;;;;;4146612;28;20025;-72
2021/01/11 03:45:20;;;;;;;28.75;17.40;;;2.30;99.90;;;;;;4143885;28;20111;-72
2021/01/11 03:47:21;;;;;;;28.13;18.13;;;2.30;99.90;;;;;;4146525;28;20441;-72
2021/01/11 03:49:22;;;;;;;29.65;18.30;;;2.30;99.90;;;;;;4154049;28;20116;-72
2021/01/11 03:51:23;;;;;;;28.45;17.38;;;2.30;99.90;;;;;;4146662;28;20121;-72
2021/01/11 03:53:24;;;;;;;30.83;18.80;;;2.30;99.90;;;;;;4144465;28;20034;-72
2021/01/11 03:55:25;;;;;;;34.17;19.35;;;2.40;99.90;;;;;;4131004;28;20053;-72
2021/01/11 03:57:31;;;;;;;29.60;18.42;;;2.40;99.90;;;;;;4126898;28;20046;-72
2021/01/11 03:59:31;;;;;;;32.40;19.48;;;2.40;99.90;;;;;;4131034;28;20030;-72
2021/01/11 04:01:36;;;;;;;31.00;19.20;;;2.40;99.90;;;;;;4136410;28;20104;-72
2021/01/11 04:03:36;;;;;;;31.02;18.38;;;2.30;99.90;;;;;;4138655;28;20097;-72
2021/01/11 04:05:42;;;;;;;33.88;18.83;;;2.30;99.90;;;;;;4130465;28;20046;-72
2021/01/11 04:07:43;;;;;;;32.90;19.20;;;2.30;99.90;;;;;;4146305;28;20026;-71
2021/01/11 04:09:44;;;;;;;37.63;21.55;;;2.30;99.90;;;;;;4131965;28;20114;-71
2021/01/11 04:11:45;;;;;;;37.22;21.65;;;2.30;99.90;;;;;;4138651;28;20030;-72
2021/01/11 04:13:47;;;;;;;36.95;20.88;;;2.30;99.90;;;;;;4144627;28;20140;-72
2021/01/11 04:15:48;;;;;;;;;;;2.40;99.90;;;;;;4146310;28;20045;-72
2021/01/11 04:17:50;;;;;;;39.47;21.40;;;2.40;99.90;;;;;;4152392;28;19914;-72
2021/01/11 04:19:51;;;;;;;43.00;23.33;;;2.40;99.90;;;;;;4149542;28;20056;-72
2021/01/11 04:21:51;;;;;;;38.30;22.58;;;2.40;99.90;;;;;;4139887;28;20022;-72
2021/01/11 04:23:52;;;;;;;43.28;23.90;;;2.40;99.90;;;;;;4138562;28;20034;-72
2021/01/11 04:25:52;;;;;;;42.63;23.50;;;2.50;99.90;;;;;;4145743;28;20098;-72
2021/01/11 04:27:56;;;;;;;43.65;24.42;;;2.50;99.90;;;;;;4143925;28;20029;-71
2021/01/11 04:29:56;;;;;;;41.97;24.02;;;2.50;99.90;;;;;;4145378;28;20034;-72
2021/01/11 04:31:58;;;;;;;42.42;23.63;;;2.50;99.90;;;;;;4143450;28;20134;-72
2021/01/11 04:33:58;;;;;;;43.70;25.10;;;2.50;99.90;;;;;;4142237;28;20034;-71
2021/01/11 04:35:59;;;;;;;42.05;25.15;;;2.50;99.90;;;;;;4129834;28;20038;-72
2021/01/11 04:38:00;;;;;;;42.58;24.63;;;2.50;99.90;;;;;;4144864;28;20406;-72
2021/01/11 04:40:01;;;;;;;49.38;26.88;;;2.50;99.90;;;;;;4143781;28;20036;-72
2021/01/11 04:42:05;;;;;;;45.45;25.33;;;2.50;99.90;;;;;;4144957;28;20034;-72
2021/01/11 04:44:11;;;;;;;46.45;27.70;;;2.60;99.90;;;;;;4127291;28;20387;-72
2021/01/11 04:46:13;;;;;;;43.75;24.95;;;2.50;99.90;;;;;;4145174;28;20088;-72
2021/01/11 04:48:14;;;;;;;43.10;24.70;;;2.50;99.90;;;;;;4139769;28;20522;-72
2021/01/11 04:50:15;;;;;;;42.05;24.13;;;2.60;99.90;;;;;;4137816;28;20038;-72
2021/01/11 04:52:18;;;;;;;38.45;22.60;;;2.60;99.90;;;;;;4138984;28;20125;-72
2021/01/11 04:54:18;;;;;;;42.33;23.90;;;2.60;99.90;;;;;;4145026;28;20478;-72
2021/01/11 04:56:19;;;;;;;43.70;24.13;;;2.60;99.90;;;;;;4128200;28;20039;-72
2021/01/11 04:58:21;;;;;;;42.53;24.00;;;2.60;99.90;;;;;;4138207;28;20130;-72
2021/01/11 05:00:30;;;;;;;38.40;22.67;;;2.60;99.90;;;;;;4144739;28;20037;-72
2021/01/11 05:02:31;;;;;;;37.20;22.30;;;2.60;99.90;;;;;;4138794;28;20095;-72
2021/01/11 05:04:31;;;;;;;37.28;22.38;;;2.70;99.90;;;;;;4142917;28;20038;-72
2021/01/11 05:06:32;;;;;;;41.88;23.00;;;2.70;99.90;;;;;;4145060;28;20048;-72
2021/01/11 05:08:32;;;;;;;36.20;21.42;;;2.60;99.90;;;;;;4141426;28;20073;-72
2021/01/11 05:10:36;;;;;;;38.28;22.50;;;2.60;99.90;;;;;;4143129;28;20100;-72
2021/01/11 05:12:36;;;;;;;34.40;21.38;;;2.70;99.90;;;;;;4144383;28;20387;-72
2021/01/11 05:14:37;;;;;;;36.83;21.90;;;2.70;99.90;;;;;;4136118;28;20033;-72
2021/01/11 05:16:37;;;;;;;33.22;20.58;;;2.70;99.90;;;;;;4130913;28;20031;-72
2021/01/11 05:18:38;;;;;;;35.63;21.73;;;2.60;99.90;;;;;;4140211;28;20176;-72
2021/01/11 05:20:39;;;;;;;34.20;21.27;;;2.70;99.90;;;;;;4138441;28;20052;-72
2021/01/11 05:22:46;;;;;;;35.85;21.95;;;2.70;99.90;;;;;;4142909;28;20037;-72
2021/01/11 05:24:48;;;;;;;37.97;22.02;;;2.60;99.90;;;;;;4142561;28;20038;-72
2021/01/11 05:26:51;;;;;;;37.53;21.55;;;2.60;99.90;;;;;;4140181;28;20105;-72
2021/01/11 05:28:51;;;;;;;37.42;21.85;;;2.60;99.90;;;;;;4140584;28;20373;-72
2021/01/11 05:30:52;;;;;;;37.97;21.33;;;2.60;99.90;;;;;;4137148;28;20035;-71
2021/01/11 05:32:53;;;;;;;36.30;21.20;;;2.60;99.90;;;;;;4134223;28;20041;-72
2021/01/11 05:34:54;;;;;;;40.40;24.05;;;2.70;99.90;;;;;;4141615;28;20622;-72
2021/01/11 05:36:54;;;;;;;33.67;20.65;;;2.70;99.90;;;;;;4144553;28;20022;-72
2021/01/11 05:39:07;;;;;;;39.58;23.20;;;2.70;99.90;;;;;;4147972;28;20610;-72
2021/01/11 05:41:22;;;;;;;41.25;21.95;;;2.70;99.90;;;;;;4138445;28;20084;-72
2021/01/11 05:43:22;;;;;;;40.55;24.50;;;2.70;99.90;;;;;;4138247;28;20049;-72
2021/01/11 05:45:28;;;;;;;41.42;24.77;;;2.60;99.90;;;;;;4143935;28;20045;-72
2021/01/11 05:47:28;;;;;;;40.22;24.45;;;2.70;99.90;;;;;;4125896;28;20089;-72
2021/01/11 05:49:29;;;;;;;43.97;25.95;;;2.70;99.90;;;;;;4145553;28;20617;-72
2021/01/11 05:51:31;;;;;;;45.58;26.50;;;2.70;99.90;;;;;;4137466;28;20498;-72
2021/01/11 05:53:32;;;;;;;43.28;25.73;;;2.60;99.90;;;;;;4137703;28;20386;-72
2021/01/11 05:55:33;;;;;;;46.97;25.67;;;2.60;99.90;;;;;;4144058;28;20040;-72
2021/01/11 05:57:34;;;;;;;49.17;27.75;;;2.60;99.90;;;;;;4145913;28;20033;-72
2021/01/11 05:59:37;;;;;;;45.08;26.08;;;2.60;99.90;;;;;;4143540;28;20037;-71
2021/01/11 06:01:38;;;;;;;48.15;26.83;;;2.70;99.90;;;;;;4133273;28;20640;-72
2021/01/11 06:03:39;;;;;;;51.00;28.98;;;2.70;99.90;;;;;;4143379;28;20037;-72
2021/01/11 06:05:41;;;;;;;52.35;29.88;;;2.60;99.90;;;;;;4143801;28;20639;-72
2021/01/11 06:07:44;;;;;;;49.13;28.35;;;2.60;99.90;;;;;;4138145;28;20037;-72
2021/01/11 06:09:44;;;;;;;;;;;2.60;99.90;;;;;;4134696;28;20474;-71
2021/01/11 06:11:47;;;;;;;48.35;26.80;;;2.60;99.90;;;;;;4140171;28;19913;-72
2021/01/11 06:13:49;;;;;;;51.88;28.67;;;2.60;99.90;;;;;;4117195;28;20464;-72
2021/01/11 06:15:50;;;;;;;55.67;29.38;;;2.70;99.90;;;;;;4141870;28;20034;-72
2021/01/11 06:17:56;;;;;;;51.05;29.35;;;2.60;99.90;;;;;;4141551;28;20115;-72
2021/01/11 06:19:57;;;;;;;57.97;31.00;;;2.70;99.90;;;;;;4134578;28;20112;-72
2021/01/11 06:21:58;;;;;;;58.90;32.88;;;2.70;99.90;;;;;;4128751;28;20037;-72
2021/01/11 06:24:18;;;;;;;57.83;30.92;;;2.70;99.90;;;;;;4141675;28;20029;-72
2021/01/11 06:26:25;;;;;;;55.58;30.80;;;2.70;99.90;;;;;;4144775;28;20526;-72
2021/01/11 06:28:33;;;;;;;56.13;29.98;;;2.80;99.90;;;;;;4140276;28;20096;-72
2021/01/11 06:30:37;;;;;;;58.55;31.17;;;2.70;99.90;;;;;;4141845;28;20042;-71
2021/01/11 06:32:38;;;;;;;56.95;31.00;;;2.80;99.90;;;;;;4136542;28;20116;-72
2021/01/11 06:34:40;;;;;;;60.85;33.15;;;2.70;99.90;;;;;;4129278;28;20042;-71
2021/01/11 06:36:42;;;;;;;61.20;32.25;;;2.70;99.90;;;;;;4133288;28;20053;-72
2021/01/11 06:38:45;;;;;;;59.42;30.83;;;2.70;99.90;;;;;;4125699;28;20038;-72
2021/01/11 06:41:01;;;;;;;57.10;32.67;;;2.70;99.90;;;;;;4115719;28;20046;-71
2021/01/11 06:43:03;;;;;;;52.92;30.50;;;2.70;99.90;;;;;;4133242;28;20042;-72
2021/01/11 06:45:05;;;;;;;54.85;30.60;;;2.70;99.90;;;;;;4130289;28;20030;-72
2021/01/11 06:47:09;;;;;;;58.17;31.48;;;2.80;99.90;;;;;;4131382;28;20410;-72
2021/01/11 06:49:22;;;;;;;60.08;32.30;;;2.70;99.90;;;;;;4125594;28;20049;-72
2021/01/11 06:51:51;;;;;;;54.40;30.23;;;2.70;99.90;;;;;;4125807;28;20124;-72
2021/01/11 06:54:15;;;;;;;57.47;31.58;;;2.80;99.90;;;;;;4126324;28;20065;-72
2021/01/11 06:56:17;;;;;;;50.00;28.67;;;2.70;99.90;;;;;;4127373;28;20042;-72
2021/01/11 06:58:22;;;;;;;55.10;30.35;;;2.80;99.90;;;;;;4132992;28;20045;-72
2021/01/11 07:00:37;;;;;;;47.17;27.50;;;2.70;99.90;;;;;;4130805;28;20618;-72
2021/01/11 07:02:42;;;;;;;52.10;28.10;;;2.80;99.90;;;;;;4127573;28;20569;-72
2021/01/11 07:04:44;;;;;;;50.78;29.38;;;2.80;99.90;;;;;;4135352;28;20040;-72
2021/01/11 07:06:44;;;;;;;49.53;27.73;;;2.80;99.90;;;;;;4129775;28;20043;-71
2021/01/11 07:08:47;;;;;;;52.80;28.52;;;2.80;99.90;;;;;;4132934;28;20352;-72
2021/01/11 07:10:50;;;;;;;;;;;2.80;99.90;;;;;;4124083;28;20565;-72
2021/01/11 07:13:18;;;;;;;54.08;26.83;;;2.80;99.90;;;;;;4122320;28;20009;-72
2021/01/11 07:15:19;;;;;;;50.88;27.65;;;2.80;99.90;;;;;;4115873;28;20096;-72
2021/01/11 07:17:38;;;;;;;55.03;29.50;;;2.80;99.90;;;;;;4140177;28;20466;-73
2021/01/11 07:19:43;;;;;;;48.33;26.83;;;2.80;99.90;;;;;;4127562;28;20026;-73
2021/01/11 07:21:45;;;;;;;45.40;25.65;;;2.80;99.90;;;;;;4139102;28;20084;-73
2021/01/11 07:23:46;;;;;;;53.42;29.00;;;2.80;99.90;;;;;;4142822;28;20031;-73
2021/01/11 07:25:50;;;;;;;44.72;26.73;;;2.80;99.90;;;;;;4123575;28;20110;-73
2021/01/11 07:27:59;;;;;;;47.90;27.13;;;2.80;99.90;;;;;;4126665;28;20031;-73
2021/01/11 07:30:00;;;;;;;43.80;27.20;;;2.80;99.90;;;;;;4142780;28;20054;-73
2021/01/11 07:32:01;;;;;;;50.90;29.27;;;2.80;99.90;;;;;;4131904;28;20035;-73
2021/01/11 07:34:18;;;;;;;48.60;27.20;;;2.90;99.90;;;;;;4139230;28;20061;-73
2021/01/11 07:36:21;;;;;;;46.63;26.40;;;2.90;99.90;;;;;;4135898;28;20027;-73
2021/01/11 07:38:21;;;;;;;47.85;28.15;;;2.90;99.90;;;;;;4131318;28;20049;-73
2021/01/11 07:40:22;;;;;;;45.70;27.60;;;2.90;99.90;;;;;;4130156;28;20045;-73
2021/01/11 07:42:23;;;;;;;49.47;28.25;;;2.90;99.90;;;;;;4127423;28;20041;-73
2021/01/11 07:44:36;;;;;;;41.70;25.83;;;2.90;99.90;;;;;;4137934;28;20114;-73
2021/01/11 07:46:37;;;;;;;47.22;27.67;;;2.90;99.90;;;;;;4128241;28;20422;-73
2021/01/11 07:48:38;;;;;;;46.70;27.73;;;2.80;99.90;;;;;;4127398;28;20030;-73
2021/01/11 07:50:38;;;;;;;48.60;26.90;;;2.80;99.90;;;;;;4134936;28;20041;-72
2021/01/11 07:52:41;;;;;;;43.20;26.08;;;2.80;99.90;;;;;;4132794;28;20037;-73
2021/01/11 07:54:41;;;;;;;44.22;26.17;;;2.80;99.90;;;;;;4137097;28;20038;-72
2021/01/11 07:56:43;;;;;;;48.10;27.45;;;2.80;99.90;;;;;;4135045;28;20041;-73
2021/01/11 07:58:51;;;;;;;46.50;26.27;;;2.70;99.90;;;;;;4128649;28;20034;-73
2021/01/11 08:01:01;;;;;;;47.10;26.25;;;2.70;99.90;;;;;;4135513;28;20061;-73
2021/01/11 08:03:03;;;;;;;47.35;27.15;;;2.70;99.90;;;;;;4132549;28;20550;-73
2021/01/11 08:05:18;;;;;;;46.10;26.10;;;2.80;99.90;;;;;;4132260;28;20089;-73
2021/01/11 08:07:27;;;;;;;46.85;26.17;;;2.70;99.90;;;;;;4117691;28;20033;-73
2021/01/11 08:09:29;;;;;;;44.08;24.92;;;2.70;99.90;;;;;;4128965;28;20113;-73
2021/01/11 08:11:30;;;;;;;48.35;25.98;;;2.70;99.90;;;;;;4133472;28;20078;-73
2021/01/11 08:13:31;;;;;;;42.00;24.58;;;2.70;99.90;;;;;;4131379;28;20033;-73
2021/01/11 08:15:31;;;;;;;43.28;23.90;;;2.70;99.90;;;;;;4118522;28;20030;-74
2021/01/11 08:17:33;;;;;;;43.72;23.52;;;2.70;99.90;;;;;;4132596;28;20042;-73
2021/01/11 08:19:34;;;;;;;41.40;24.50;;;2.70;99.90;;;;;;4132796;28;20384;-73
2021/01/11 08:21:35;;;;;;;38.78;22.70;;;2.70;99.90;;;;;;4133620;28;20117;-73
2021/01/11 08:23:37;;;;;;;37.25;21.90;;;2.60;99.90;;;;;;4132623;28;20108;-73
2021/01/11 08:25:38;;;;;;;42.20;22.37;;;2.60;99.90;;;;;;4125935;28;20465;-73
2021/01/11 08:27:43;;;;;;;43.55;24.35;;;2.60;99.90;;;;;;4133532;28;20034;-73
2021/01/11 08:29:44;;;;;;;45.20;24.67;;;2.60;99.90;;;;;;4132606;28;20068;-73
2021/01/11 08:31:45;;;;;;;45.17;23.33;;;2.60;99.90;;;;;;4128313;28;20037;-73
2021/01/11 08:33:48;;;;;;;39.00;22.58;;;2.50;99.90;;;;;;4130142;28;20046;-73
2021/01/11 08:35:48;;;;;;;37.80;22.33;;;2.60;99.90;;;;;;4128618;28;20493;-73
2021/01/11 08:37:59;;;;;;;34.58;21.58;;;2.50;99.90;;;;;;4130009;28;20722;-73
2021/01/11 08:40:24;;;;;;;41.28;23.50;;;2.60;99.90;;;;;;4127721;28;20052;-73
2021/01/11 08:42:29;;;;;;;41.00;21.27;;;2.50;99.90;;;;;;4132501;28;20476;-73
2021/01/11 08:44:32;;;;;;;43.42;23.33;;;2.60;99.90;;;;;;4132082;28;20066;-72
2021/01/11 08:47:02;;;;;;;38.60;21.80;;;2.50;99.90;;;;;;4136317;28;20022;-73
2021/01/11 08:49:06;;;;;;;42.83;24.00;;;2.50;99.90;;;;;;4131841;28;20049;-73
2021/01/11 08:51:07;;;;;;;41.08;23.42;;;2.50;99.90;;;;;;4131901;28;20040;-73
2021/01/11 08:53:21;;;;;;;43.03;23.90;;;2.50;99.90;;;;;;4131785;28;20117;-73
2021/01/11 08:55:21;;;;;;;39.80;22.50;;;2.50;99.90;;;;;;4129586;28;20052;-73
2021/01/11 08:57:27;;;;;;;42.15;23.70;;;2.50;99.90;;;;;;4116466;28;20114;-73
2021/01/11 08:59:27;;;;;;;39.33;22.15;;;2.50;99.90;;;;;;4147931;28;20038;-73
2021/01/11 09:01:34;;;;;;;42.13;22.58;;;2.50;99.90;;;;;;4144830;28;20113;-73
2021/01/11 09:03:44;;;;;;;43.75;23.50;;;2.50;99.90;;;;;;4138627;28;20062;-73
2021/01/11 09:05:45;;;;;;;43.22;24.48;;;2.50;99.90;;;;;;4122547;28;20045;-73
2021/01/11 09:07:46;;;;;;;36.15;22.77;;;2.50;99.90;;;;;;4128729;28;20030;-73
2021/01/11 09:09:46;;;;;;;45.53;24.15;;;2.50;99.90;;;;;;4123759;28;20054;-73
2021/01/11 09:11:48;;;;;;;47.95;24.10;;;2.50;99.90;;;;;;4132155;28;20026;-73
2021/01/11 09:14:04;;;;;;;47.78;24.55;;;2.50;99.90;;;;;;4127375;28;20033;-73
2021/01/11 09:16:16;;;;;;;44.17;24.10;;;2.50;99.90;;;;;;4121092;28;20117;-73
2021/01/11 09:18:18;;;;;;;41.75;24.05;;;2.50;99.90;;;;;;4126771;28;20054;-73
2021/01/11 09:20:18;;;;;;;40.65;23.98;;;2.50;99.90;;;;;;4135819;28;20113;-73
2021/01/11 09:22:39;;;;;;;38.42;22.48;;;2.50;99.90;;;;;;4133045;28;20459;-73
2021/01/11 09:24:40;;;;;;;38.45;22.75;;;2.60;99.90;;;;;;4120452;28;20501;-72
2021/01/11 09:26:41;;;;;;;46.50;24.55;;;2.60;99.90;;;;;;4128328;28;20066;-73
2021/01/11 09:28:41;;;;;;;40.85;22.30;;;2.60;99.90;;;;;;4122073;28;20078;-73
2021/01/11 09:30:42;;;;;;;41.55;22.35;;;2.60;99.90;;;;;;4129601;28;20041;-73
2021/01/11 09:32:44;;;;;;;39.58;21.23;;;2.60;99.90;;;;;;4127453;28;20035;-72
2021/01/11 09:34:45;;;;;;;37.17;20.90;;;2.60;99.90;;;;;;4131647;28;20525;-72
2021/01/11 09:36:46;;;;;;;35.00;20.17;;;2.60;99.90;;;;;;4130391;28;20038;-72
2021/01/11 09:38:48;;;;;;;38.00;21.77;;;2.60;99.90;;;;;;4124168;28;20558;-72
2021/01/11 09:40:49;;;;;;;36.85;21.15;;;2.70;99.90;;;;;;4141121;28;20458;-72
2021/01/11 09:42:50;;;;;;;36.30;21.35;;;2.70;99.90;;;;;;4146590;28;20029;-72
2021/01/11 09:44:50;;;;;;;38.70;21.33;;;2.70;99.90;;;;;;4145558;28;20038;-72
2021/01/11 09:46:55;;;;;;;36.47;21.17;;;2.70;99.90;;;;;;4144731;28;20482;-72
2021/01/11 09:48:56;;;;;;;35.10;19.80;;;2.70;99.90;;;;;;4142340;28;20117;-72
2021/01/11 09:50:57;;;;;;;36.28;20.35;;;2.70;99.90;;;;;;4124009;28;20061;-72
2021/01/11 09:53:00;;;;;;;36.85;20.00;;;2.70;99.90;;;;;;4141417;28;20046;-72
2021/01/11 09:55:01;;;;;;;35.55;20.02;;;2.70;99.90;;;;;;4139204;28;20045;-72
2021/01/11 09:57:09;;;;;;;37.35;21.33;;;2.70;99.90;;;;;;4150518;28;20640;-72
2021/01/11 09:59:11;;;;;;;37.40;20.10;;;2.70;99.90;;;;;;4140832;28;20050;-72
2021/01/11 10:01:12;;;;;;;35.30;20.48;;;2.70;99.90;;;;;;4146929;28;20560;-72
2021/01/11 10:03:13;;;;;;;34.83;19.60;;;2.70;99.90;;;;;;4139041;28;20030;-72
2021/01/11 10:05:16;;;;;;;34.38;19.25;;;2.70;99.90;;;;;;4150045;28;20446;-72
2021/01/11 10:07:17;;;;;;;33.63;19.08;;;2.70;99.90;;;;;;4141168;28;20032;-72
2021/01/11 10:09:23;;;;;;;34.83;19.73;;;2.70;99.90;;;;;;4141694;28;20054;-71
2021/01/11 10:11:23;;;;;;;36.10;19.17;;;2.70;99.90;;;;;;4150868;28;20120;-71
2021/01/11 10:13:24;;;;;;;33.78;19.08;;;2.70;99.90;;;;;;4142931;28;20045;-71
2021/01/11 10:15:25;;;;;;;36.25;19.65;;;2.70;99.90;;;;;;4147226;28;20042;-72
2021/01/11 10:17:27;;;;;;;32.88;18.55;;;2.70;99.90;;;;;;4142635;28;20038;-72
2021/01/11 10:19:29;;;;;;;34.95;18.75;;;2.70;99.90;;;;;;4142506;28;20026;-71
2021/01/11 10:21:29;;;;;;;34.47;19.02;;;2.70;99.90;;;;;;4144602;28;20046;-72
2021/01/11 10:23:30;;;;;;;33.30;18.92;;;2.70;99.90;;;;;;4143387;28;20470;-72
2021/01/11 10:25:32;;;;;;;36.97;19.40;;;2.70;99.90;;;;;;4122057;28;20027;-72
2021/01/11 10:27:33;;;;;;;;;;;2.70;99.90;;;;;;4143000;28;20030;-71
2021/01/11 10:29:34;;;;;;;27.50;16.88;;;2.70;99.90;;;;;;4120638;28;20718;-71
2021/01/11 10:31:34;;;;;;;30.27;17.80;;;2.70;99.90;;;;;;4143462;28;20104;-71
2021/01/11 10:33:35;;;;;;;30.00;17.42;;;2.80;99.90;;;;;;4145942;28;20033;-71
2021/01/11 10:35:36;;;;;;;29.98;16.98;;;2.80;99.90;;;;;;4142772;28;20366;-71